This is the latest recevied weather packets stored in our database for station/object K4QXN. If no packets are shown the sender has not sent any weather packets the latest 10 day(s).
| Time | Temp. | Humidity | Pressure | Rain* | Wind** | Luminosity | Snow |
|---|---|---|---|---|---|---|---|
| 1777661724 | 18.33° C | 54% | 1012.1 hPa | 0 mm | - | - | - |
| 1777660817 | 18.33° C | 54% | 1012.5 hPa | 0 mm | - | - | - |
| 1777660515 | 18.33° C | 52% | 1012.5 hPa | 0 mm | - | - | - |
| 1777660213 | 17.78° C | 52% | 1012.1 hPa | 0 mm | - | - | - |
| 1777659911 | 17.78° C | 53% | 1012.5 hPa | 0 mm | - | - | - |
| 1777659308 | 17.78° C | 51% | 1012.5 hPa | 0 mm | - | - | - |
| 1777659005 | 17.78° C | 52% | 1012.1 hPa | 0 mm | - | - | - |
| 1777658702 | 17.78° C | 50% | 1012.5 hPa | 0 mm | - | - | - |
| 1777658401 | 17.78° C | 51% | 1012.5 hPa | 0 mm | - | - | - |
| 1777658099 | 17.22° C | 51% | 1012.5 hPa | 0 mm | - | - | - |
| 1777657797 | 17.22° C | 49% | 1012.8 hPa | 0 mm | - | - | - |
| 1777657193 | 17.22° C | 49% | 1012.8 hPa | 0 mm | - | - | - |
| 1777656891 | 17.78° C | 49% | 1012.5 hPa | 0 mm | - | - | - |
| 1777656589 | 17.78° C | 49% | 1012.8 hPa | 0 mm | - | - | - |
| 1777656287 | 17.22° C | 50% | 1012.8 hPa | 0 mm | - | - | - |
| 1777655683 | 17.22° C | 51% | 1012.8 hPa | 0 mm | - | - | - |
| 1777655381 | 18.33° C | 48% | 1012.8 hPa | 0 mm | - | - | - |
| 1777655080 | 18.33° C | 49% | 1012.8 hPa | 0 mm | - | - | - |
| 1777654474 | 17.22° C | 52% | 1012.8 hPa | 0 mm | - | - | - |
| 1777654172 | 17.22° C | 50% | 1013.2 hPa | 0 mm | - | - | - |
| 1777653861 | 17.22° C | 52% | 1013.2 hPa | 0 mm | - | - | - |
| 1777653559 | 17.22° C | 51% | 1013.5 hPa | 0 mm | - | - | - |
| 1777652947 | 15.56° C | 52% | 1013.5 hPa | 0 mm | - | - | - |
| 1777652644 | 15.56° C | 54% | 1013.5 hPa | 0 mm | - | - | - |
| 1777652040 | 15° C | 55% | 1013.5 hPa | 0 mm | - | - | - |
* Rain latest hour (hover to see other rain measurements)
** Current wind speed in m/s (hover to see current wind gust speed)